MMTC/TRC METAR and TAF weather

Enter ICAO airport designator
Station Type Date Time Source
MMTC METAR 2020/07/05 01:40 UTC NOAA

MMTC 050140Z 35005KT 10SM FEW020 SCT200 34/12 A2995 RMK 8/502 HZY


Station Type Date Time Source
MMTC Decoded METAR 2020/07/05 01:40 UTC NOAA

Torreon, Coah., Mexico (MMTC) 25-32N 103-27W 1150M
Jul 04, 2020 - 09:40 PM EDT / 2020.07.05 0140 UTC
Wind: from the N (350 degrees) at 6 MPH (5 KT):0
Visibility: 10 mile(s):0
Sky conditions: partly cloudy
Temperature: 93 F (34 C)
Dew Point: 53 F (12 C)
Relative Humidity: 26%
Pressure (altimeter): 29.95 in. Hg (1014 hPa)
ob: MMTC 050140Z 35005KT 10SM FEW020 SCT200 34/12 A2995 RMK 8/502 HZY
cycle: 1

Station Type Date Time Source
MMTC TAF 2020/07/04 18:24 UTC NOAA

TAF TAF MMTC 041721Z 0418/0518 06006KT 6SM HZ SKC
BECMG 0420/0421 09015KT P6SM
FM050300 10005KT P6SM SKC
BECMG 0516/0517 06008KT

Example: see airport list